createdAt,value
2018-03-01T00:01:00.000Z,-5.5
2018-03-01T00:06:00.000Z,-5.5
2018-03-01T00:11:00.000Z,-5.6
2018-03-01T00:16:00.000Z,-5.6
2018-03-01T00:21:00.000Z,-5.6
2018-03-01T00:26:00.000Z,-5.7
2018-03-01T00:31:00.000Z,-5.8
2018-03-01T00:36:00.000Z,-5.8
2018-03-01T00:41:00.000Z,-5.9
2018-03-01T00:46:00.000Z,-5.9
2018-03-01T00:51:00.000Z,-5.9
2018-03-01T00:56:00.000Z,-6.0
2018-03-01T01:01:00.000Z,-6.3
2018-03-01T01:06:00.000Z,-6.5
2018-03-01T01:11:00.000Z,-6.6
2018-03-01T01:16:00.000Z,-6.6
2018-03-01T01:21:00.000Z,-6.4
2018-03-01T01:26:00.000Z,-6.4
2018-03-01T01:31:00.000Z,-6.4
2018-03-01T01:36:00.000Z,-6.5
2018-03-01T01:41:00.000Z,-6.6
2018-03-01T01:46:00.000Z,-6.8
2018-03-01T01:51:00.000Z,-7.0
2018-03-01T01:56:00.000Z,-7.0
2018-03-01T02:01:00.000Z,-7.1
2018-03-01T02:06:00.000Z,-7.2
2018-03-01T02:11:00.000Z,-7.1
2018-03-01T02:16:00.000Z,-7.1
2018-03-01T02:21:00.000Z,-7.2
2018-03-01T02:26:00.000Z,-7.4
2018-03-01T02:31:00.000Z,-7.5
2018-03-01T02:36:00.000Z,-7.7
2018-03-01T02:41:00.000Z,-7.9
2018-03-01T02:46:00.000Z,-8.0
2018-03-01T02:51:00.000Z,-8.0
2018-03-01T02:56:00.000Z,-8.1
2018-03-01T03:01:00.000Z,-8.0
2018-03-01T03:06:00.000Z,-8.1
2018-03-01T03:11:00.000Z,-8.1
2018-03-01T03:16:00.000Z,-8.2
2018-03-01T03:21:00.000Z,-8.2
2018-03-01T03:26:00.000Z,-8.3
2018-03-01T03:31:00.000Z,-8.3
2018-03-01T03:36:00.000Z,-8.2
2018-03-01T03:41:00.000Z,-8.2
2018-03-01T03:46:00.000Z,-8.2
2018-03-01T03:51:00.000Z,-8.2
2018-03-01T03:56:00.000Z,-8.3
2018-03-01T04:01:00.000Z,-8.4
2018-03-01T04:06:00.000Z,-8.4
2018-03-01T04:11:00.000Z,-8.4
2018-03-01T04:16:00.000Z,-8.5
2018-03-01T04:21:00.000Z,-8.5
2018-03-01T04:26:00.000Z,-8.5
2018-03-01T04:31:00.000Z,-8.5
2018-03-01T04:36:00.000Z,-8.5
2018-03-01T04:41:00.000Z,-8.7
2018-03-01T04:46:00.000Z,-8.7
2018-03-01T04:51:00.000Z,-8.7
2018-03-01T04:56:00.000Z,-8.7
2018-03-01T05:01:00.000Z,-8.7
2018-03-01T05:06:00.000Z,-8.7
2018-03-01T05:12:00.000Z,-8.7
2018-03-01T05:17:00.000Z,-8.8
2018-03-01T05:22:00.000Z,-8.8
2018-03-01T05:27:00.000Z,-8.9
2018-03-01T05:32:00.000Z,-8.9
2018-03-01T05:37:00.000Z,-8.9
2018-03-01T05:42:00.000Z,-9.0
2018-03-01T05:47:00.000Z,-8.9
2018-03-01T05:52:00.000Z,-9.0
2018-03-01T05:57:00.000Z,-9.1
2018-03-01T06:02:00.000Z,-9.2
2018-03-01T06:07:00.000Z,-9.3
2018-03-01T06:12:00.000Z,-9.3
2018-03-01T06:17:00.000Z,-9.3
2018-03-01T06:22:00.000Z,-9.1
2018-03-01T06:27:00.000Z,-9.1
2018-03-01T06:32:00.000Z,-9.1
2018-03-01T06:37:00.000Z,-9.0
2018-03-01T06:42:00.000Z,-9.0
2018-03-01T06:47:00.000Z,-9.0
2018-03-01T06:52:00.000Z,-8.9
2018-03-01T06:57:00.000Z,-8.8
2018-03-01T07:02:00.000Z,-8.8
2018-03-01T07:07:00.000Z,-8.7
2018-03-01T07:12:00.000Z,-8.7
2018-03-01T07:17:00.000Z,-8.7
2018-03-01T07:22:00.000Z,-8.5
2018-03-01T07:27:00.000Z,-8.1
2018-03-01T07:32:00.000Z,-8.0
2018-03-01T07:37:00.000Z,-7.9
2018-03-01T07:42:00.000Z,-7.9
2018-03-01T07:47:00.000Z,-7.7
2018-03-01T07:52:00.000Z,-7.6
2018-03-01T07:57:00.000Z,-7.6
2018-03-01T08:02:00.000Z,-7.5
2018-03-01T08:07:00.000Z,-7.2
2018-03-01T08:12:00.000Z,-7.2
2018-03-01T08:17:00.000Z,-7.0
2018-03-01T08:22:00.000Z,-6.9
2018-03-01T08:27:00.000Z,-6.6
2018-03-01T08:32:00.000Z,-6.3
2018-03-01T08:37:00.000Z,-6.1
2018-03-01T08:42:00.000Z,-5.9
2018-03-01T08:47:00.000Z,-5.8
2018-03-01T08:52:00.000Z,-5.6
2018-03-01T08:57:00.000Z,-5.2
2018-03-01T09:02:00.000Z,-4.1
2018-03-01T09:07:00.000Z,-3.8
2018-03-01T09:12:00.000Z,-3.4
2018-03-01T09:17:00.000Z,-3.0
2018-03-01T09:22:00.000Z,-2.5
2018-03-01T09:27:00.000Z,-2.4
2018-03-01T09:32:00.000Z,-2.4
2018-03-01T09:37:00.000Z,-2.1
2018-03-01T09:42:00.000Z,-2.3
2018-03-01T09:47:00.000Z,-2.2
2018-03-01T09:52:00.000Z,-1.9
2018-03-01T09:57:00.000Z,-1.8
2018-03-01T10:08:00.000Z,-1.8
2018-03-01T10:13:00.000Z,-1.7
2018-03-01T10:18:00.000Z,-1.9
2018-03-01T10:23:00.000Z,-1.7
2018-03-01T10:28:00.000Z,-1.8
2018-03-01T10:33:00.000Z,-1.6
2018-03-01T10:38:00.000Z,-1.5
2018-03-01T10:43:00.000Z,-1.5
2018-03-01T10:48:00.000Z,-1.3
2018-03-01T10:53:00.000Z,-1.5
2018-03-01T10:58:00.000Z,-1.3
2018-03-01T11:03:00.000Z,-1.8
2018-03-01T11:08:00.000Z,-1.8
2018-03-01T11:13:00.000Z,-2.2
2018-03-01T11:18:00.000Z,-2.7
2018-03-01T11:23:00.000Z,-2.7
2018-03-01T11:28:00.000Z,-2.8
2018-03-01T11:33:00.000Z,-3.1
2018-03-01T11:38:00.000Z,-3.4
2018-03-01T11:43:00.000Z,-3.5
2018-03-01T11:48:00.000Z,-3.3
2018-03-01T11:53:00.000Z,-3.3
2018-03-01T11:58:00.000Z,-3.5
2018-03-01T12:03:00.000Z,-3.9
2018-03-01T12:08:00.000Z,-4.0
2018-03-01T12:13:00.000Z,-4.2
2018-03-01T12:18:00.000Z,-4.2
2018-03-01T12:23:00.000Z,-4.1
2018-03-01T12:28:00.000Z,-4.0
2018-03-01T12:33:00.000Z,-4.2
2018-03-01T12:38:00.000Z,-4.3
2018-03-01T12:43:00.000Z,-4.3
2018-03-01T12:48:00.000Z,-4.2
2018-03-01T12:53:00.000Z,-4.0
2018-03-01T12:58:00.000Z,-4.0
2018-03-01T13:03:00.000Z,-3.8
2018-03-01T13:08:00.000Z,-3.8
2018-03-01T13:14:00.000Z,-3.8
2018-03-01T13:19:00.000Z,-4.0
2018-03-01T13:24:00.000Z,-3.7
2018-03-01T13:29:00.000Z,-3.6
2018-03-01T13:34:00.000Z,-3.7
2018-03-01T13:39:00.000Z,-4.0
2018-03-01T13:44:00.000Z,-3.9
2018-03-01T13:49:00.000Z,-3.8
2018-03-01T13:54:00.000Z,-3.9
2018-03-01T13:59:00.000Z,-4.0
2018-03-01T14:04:00.000Z,-3.7
2018-03-01T14:09:00.000Z,-3.5
2018-03-01T14:14:00.000Z,-3.4
2018-03-01T14:19:00.000Z,-3.5
2018-03-01T14:24:00.000Z,-3.6
2018-03-01T14:29:00.000Z,-3.6
2018-03-01T14:34:00.000Z,-3.7
2018-03-01T14:39:00.000Z,-3.8
2018-03-01T14:44:00.000Z,-3.8
2018-03-01T14:49:00.000Z,-3.9
2018-03-01T14:54:00.000Z,-3.8
2018-03-01T14:59:00.000Z,-3.8
2018-03-01T15:04:00.000Z,-3.9
2018-03-01T15:09:00.000Z,-3.8
2018-03-01T15:14:00.000Z,-3.8
2018-03-01T15:19:00.000Z,-3.8
2018-03-01T15:24:00.000Z,-3.8
2018-03-01T15:29:00.000Z,-3.6
2018-03-01T15:34:00.000Z,-3.5
2018-03-01T15:39:00.000Z,-3.6
2018-03-01T15:44:00.000Z,-3.4
2018-03-01T15:49:00.000Z,-3.4
2018-03-01T15:54:00.000Z,-3.7
2018-03-01T15:59:00.000Z,-4.0
2018-03-01T16:04:00.000Z,-4.1
2018-03-01T16:09:00.000Z,-4.1
2018-03-01T16:14:00.000Z,-4.0
2018-03-01T16:19:00.000Z,-4.0
2018-03-01T16:24:00.000Z,-3.9
2018-03-01T16:29:00.000Z,-3.9
2018-03-01T16:34:00.000Z,-4.0
2018-03-01T16:39:00.000Z,-4.0
2018-03-01T16:44:00.000Z,-4.0
2018-03-01T16:49:00.000Z,-4.1
2018-03-01T16:54:00.000Z,-4.2
2018-03-01T16:59:00.000Z,-4.1
2018-03-01T17:04:00.000Z,-4.1
2018-03-01T17:09:00.000Z,-3.9
2018-03-01T17:14:00.000Z,-3.9
2018-03-01T17:19:00.000Z,-3.9
2018-03-01T17:24:00.000Z,-4.0
2018-03-01T17:29:00.000Z,-4.1
2018-03-01T17:34:00.000Z,-4.3
2018-03-01T17:39:00.000Z,-4.3
2018-03-01T17:44:00.000Z,-4.4
2018-03-01T17:49:00.000Z,-4.4
2018-03-01T17:54:00.000Z,-4.4
2018-03-01T17:59:00.000Z,-4.3
2018-03-01T18:04:00.000Z,-4.5
2018-03-01T18:09:00.000Z,-4.5
2018-03-01T18:14:00.000Z,-4.6
2018-03-01T18:19:00.000Z,-4.7
2018-03-01T18:24:00.000Z,-4.8
2018-03-01T18:29:00.000Z,-4.7
2018-03-01T18:34:00.000Z,-4.6
2018-03-01T18:39:00.000Z,-4.6
2018-03-01T18:44:00.000Z,-4.6
2018-03-01T18:49:00.000Z,-4.6
2018-03-01T18:54:00.000Z,-4.6
2018-03-01T18:59:00.000Z,-4.7
2018-03-01T19:04:00.000Z,-4.6
2018-03-01T19:09:00.000Z,-4.6
2018-03-01T19:15:00.000Z,-4.5
2018-03-01T19:20:00.000Z,-4.5
2018-03-01T19:25:00.000Z,-4.5
2018-03-01T19:30:00.000Z,-4.5
2018-03-01T19:35:00.000Z,-4.5
2018-03-01T19:40:00.000Z,-4.5
2018-03-01T19:45:00.000Z,-4.6
2018-03-01T19:50:00.000Z,-4.6
2018-03-01T19:55:00.000Z,-4.6
2018-03-01T20:00:00.000Z,-4.7
2018-03-01T20:05:00.000Z,-4.7
2018-03-01T20:10:00.000Z,-4.8
2018-03-01T20:15:00.000Z,-4.7
2018-03-01T20:20:00.000Z,-4.7
2018-03-01T20:25:00.000Z,-4.8
2018-03-01T20:30:00.000Z,-4.9
2018-03-01T20:35:00.000Z,-4.9
2018-03-01T20:40:00.000Z,-4.8
2018-03-01T20:45:00.000Z,-4.8
2018-03-01T20:50:00.000Z,-4.9
2018-03-01T20:55:00.000Z,-4.9
2018-03-01T21:00:00.000Z,-4.9
2018-03-01T21:05:00.000Z,-4.8
2018-03-01T21:10:00.000Z,-4.8
2018-03-01T21:15:00.000Z,-4.8
2018-03-01T21:20:00.000Z,-4.7
2018-03-01T21:25:00.000Z,-4.7
2018-03-01T21:30:00.000Z,-4.7
2018-03-01T21:35:00.000Z,-4.7
2018-03-01T21:40:00.000Z,-4.6
2018-03-01T21:45:00.000Z,-4.5
2018-03-01T21:50:00.000Z,-4.5
2018-03-01T21:55:00.000Z,-4.5
2018-03-01T22:00:00.000Z,-4.6
2018-03-01T22:05:00.000Z,-4.7
2018-03-01T22:10:00.000Z,-4.9
2018-03-01T22:15:00.000Z,-5.0
2018-03-01T22:20:00.000Z,-4.8
2018-03-01T22:25:00.000Z,-4.8
2018-03-01T22:30:00.000Z,-4.9
2018-03-01T22:35:00.000Z,-4.9
2018-03-01T22:40:00.000Z,-4.8
2018-03-01T22:45:00.000Z,-4.8
2018-03-01T22:50:00.000Z,-4.9
2018-03-01T22:55:00.000Z,-4.8
2018-03-01T23:00:00.000Z,-4.6
2018-03-01T23:05:00.000Z,-4.7
2018-03-01T23:10:00.000Z,-4.7
2018-03-01T23:15:00.000Z,-4.8
2018-03-01T23:20:00.000Z,-4.9
2018-03-01T23:25:00.000Z,-4.9
2018-03-01T23:30:00.000Z,-4.9
2018-03-01T23:35:00.000Z,-5.0
2018-03-01T23:40:00.000Z,-5.0
2018-03-01T23:45:00.000Z,-5.0
2018-03-01T23:50:00.000Z,-5.1
2018-03-01T23:55:00.000Z,-5.1
